Time;durP1;ratioP1;P1;durP2;ratioP2;P2;SDS_P1;SDS_P2;PMS_P1;PMS_P2;Temp;Humidity;BMP_temperature;BMP_pressure;BME280_temperature;BME280_humidity;BME280_pressure;Samples;Min_cycle;Max_cycle;Signal;HPM_P1;HPM_P2
2023/09/06 00:00:52;;;;;;;5.13;3.50;;;18.70;99.90;;;;;;5014738;28;20442;-62
2023/09/06 00:03:19;;;;;;;3.50;3.20;;;18.60;99.90;;;;;;5015000;28;20450;-62
2023/09/06 00:05:47;;;;;;;6.27;4.10;;;18.60;99.90;;;;;;5015132;28;20449;-61
2023/09/06 00:08:16;;;;;;;7.77;3.30;;;18.50;99.90;;;;;;5014924;28;20454;-62
2023/09/06 00:10:44;;;;;;;4.90;3.50;;;18.50;99.90;;;;;;5015020;28;20445;-62
2023/09/06 00:13:13;;;;;;;3.00;2.70;;;18.50;99.90;;;;;;5014862;28;20970;-61
2023/09/06 00:15:40;;;;;;;4.20;3.10;;;18.40;99.90;;;;;;5014304;28;20442;-61
2023/09/06 00:18:07;;;;;;;4.20;3.70;;;18.40;99.90;;;;;;5014555;28;20485;-62
2023/09/06 00:20:36;;;;;;;4.20;3.50;;;18.30;99.90;;;;;;5014482;28;20438;-61
2023/09/06 00:23:05;;;;;;;6.27;2.90;;;18.30;99.90;;;;;;5014571;28;20845;-62
2023/09/06 00:25:33;;;;;;;5.43;3.00;;;18.30;99.90;;;;;;5014579;28;20459;-61
2023/09/06 00:28:01;;;;;;;3.23;2.73;;;18.20;99.90;;;;;;5016858;28;20457;-62
2023/09/06 00:30:29;;;;;;;3.20;2.90;;;18.20;99.90;;;;;;5018999;28;20450;-62
2023/09/06 00:32:56;;;;;;;4.70;3.50;;;18.20;99.90;;;;;;5019233;28;20445;-62
2023/09/06 00:35:24;;;;;;;4.47;3.47;;;18.10;99.90;;;;;;5018397;28;20445;-62
2023/09/06 00:37:51;;;;;;;5.07;3.43;;;18.00;99.90;;;;;;5018507;28;20489;-62
2023/09/06 00:40:21;;;;;;;3.97;3.10;;;18.00;99.90;;;;;;5018461;28;20963;-61
2023/09/06 00:42:49;;;;;;;3.53;3.03;;;18.00;99.90;;;;;;5018314;28;20522;-62
2023/09/06 00:45:18;;;;;;;3.27;2.87;;;17.90;99.90;;;;;;5018433;28;20448;-62
2023/09/06 00:47:45;;;;;;;4.83;3.27;;;17.90;99.90;;;;;;5018333;28;20461;-62
2023/09/06 00:50:14;;;;;;;3.27;2.70;;;17.90;99.90;;;;;;5018853;28;20445;-62
2023/09/06 00:52:41;;;;;;;3.40;3.10;;;17.80;99.90;;;;;;5019369;28;20454;-61
2023/09/06 00:55:10;;;;;;;3.37;3.07;;;17.80;99.90;;;;;;5018340;28;20499;-63
2023/09/06 00:57:40;;;;;;;3.60;3.10;;;17.80;99.90;;;;;;5017954;28;20485;-62
2023/09/06 01:00:14;;;;;;;3.50;2.77;;;17.80;99.90;;;;;;5017787;28;20446;-62
2023/09/06 01:02:41;;;;;;;4.10;2.67;;;17.80;99.90;;;;;;5018123;28;20434;-60
2023/09/06 01:05:08;;;;;;;3.90;3.10;;;17.70;99.90;;;;;;5018038;28;20822;-61
2023/09/06 01:07:36;;;;;;;3.50;3.20;;;17.70;99.90;;;;;;5017395;28;20967;-62
2023/09/06 01:10:04;;;;;;;3.47;2.80;;;17.60;99.90;;;;;;5017370;28;20456;-62
2023/09/06 01:12:31;;;;;;;6.00;2.87;;;17.70;99.90;;;;;;5017603;28;20472;-62
2023/09/06 01:14:59;;;;;;;2.60;2.33;;;17.60;99.90;;;;;;5017383;28;20446;-62
2023/09/06 01:17:28;;;;;;;3.00;2.80;;;17.60;99.90;;;;;;5017295;28;20489;-62
2023/09/06 01:20:09;;;;;;;3.20;2.60;;;17.60;99.90;;;;;;5017541;28;20450;-63
2023/09/06 01:22:41;;;;;;;6.00;3.00;;;17.50;99.90;;;;;;5017562;28;20457;-60
2023/09/06 01:25:11;;;;;;;4.30;3.10;;;17.50;99.90;;;;;;5017333;28;20428;-62
2023/09/06 01:27:38;;;;;;;10.40;3.80;;;17.50;99.90;;;;;;5017029;28;20516;-61
2023/09/06 01:30:07;;;;;;;7.50;3.60;;;17.50;99.90;;;;;;5016687;28;20944;-62
2023/09/06 01:32:34;;;;;;;3.90;3.07;;;17.50;99.90;;;;;;5017227;28;20468;-63
2023/09/06 01:35:01;;;;;;;4.10;2.53;;;17.40;99.90;;;;;;5016536;28;20971;-62
2023/09/06 01:37:28;;;;;;;4.43;3.47;;;17.40;99.90;;;;;;5016473;28;20485;-62
2023/09/06 01:39:54;;;;;;;3.00;2.70;;;17.40;99.90;;;;;;5016099;28;20442;-63
2023/09/06 01:42:23;;;;;;;3.10;2.80;;;17.40;99.90;;;;;;5016302;28;20446;-62
2023/09/06 01:44:49;;;;;;;3.40;3.10;;;17.30;99.90;;;;;;5016996;28;20450;-61
2023/09/06 01:47:16;;;;;;;3.90;3.20;;;17.30;99.90;;;;;;5016678;28;20457;-62
2023/09/06 01:49:44;;;;;;;3.67;2.73;;;17.30;99.90;;;;;;5016671;28;20441;-61
2023/09/06 01:52:11;;;;;;;3.40;2.90;;;17.30;99.90;;;;;;5016653;28;20446;-61
2023/09/06 01:54:38;;;;;;;4.63;2.97;;;17.30;99.90;;;;;;5016895;28;20494;-62
2023/09/06 01:57:06;;;;;;;2.90;2.70;;;17.20;99.90;;;;;;5016041;28;20987;-62
2023/09/06 01:59:34;;;;;;;3.30;3.00;;;17.20;99.90;;;;;;5017033;28;20537;-61
2023/09/06 02:02:01;;;;;;;3.20;2.77;;;17.20;99.90;;;;;;5016444;28;20963;-62
2023/09/06 02:04:27;;;;;;;3.53;3.10;;;17.20;99.90;;;;;;5016707;28;20449;-61
2023/09/06 02:06:54;;;;;;;2.57;2.37;;;17.20;99.90;;;;;;5016458;28;20469;-61
2023/09/06 02:09:21;;;;;;;4.43;3.00;;;17.10;99.90;;;;;;5016697;28;20442;-61
2023/09/06 02:11:47;;;;;;;3.20;2.90;;;17.10;99.90;;;;;;5016121;28;20518;-61
2023/09/06 02:14:14;;;;;;;4.60;3.40;;;17.10;99.90;;;;;;5016481;28;20446;-61
2023/09/06 02:16:42;;;;;;;4.67;3.37;;;17.10;99.90;;;;;;5015849;28;20462;-61
2023/09/06 02:19:09;;;;;;;3.47;2.63;;;17.10;99.90;;;;;;5015973;28;20457;-62
2023/09/06 02:21:38;;;;;;;3.20;2.87;;;17.00;99.90;;;;;;5015783;28;20448;-61
2023/09/06 02:24:05;;;;;;;4.40;3.27;;;17.00;99.90;;;;;;5016520;28;20446;-61
2023/09/06 02:26:32;;;;;;;3.30;3.00;;;17.00;99.90;;;;;;5015866;28;20548;-61
2023/09/06 02:28:59;;;;;;;3.53;3.00;;;17.00;99.90;;;;;;5015333;28;20820;-61
2023/09/06 02:31:25;;;;;;;3.27;3.00;;;17.00;99.90;;;;;;5015729;28;20437;-61
2023/09/06 02:33:55;;;;;;;4.30;3.20;;;17.00;99.90;;;;;;5015903;28;20516;-61
2023/09/06 02:36:22;;;;;;;3.60;3.30;;;17.00;99.90;;;;;;5015048;28;20980;-61
2023/09/06 02:38:48;;;;;;;4.53;3.17;;;17.00;99.90;;;;;;5015507;28;20469;-61
2023/09/06 02:41:15;;;;;;;4.30;3.00;;;16.90;99.90;;;;;;5015271;28;20446;-61
2023/09/06 02:43:42;;;;;;;3.37;3.07;;;16.90;99.90;;;;;;5015488;28;20438;-61
2023/09/06 02:46:10;;;;;;;3.37;3.03;;;16.90;99.90;;;;;;5015184;28;20441;-61
2023/09/06 02:48:38;;;;;;;3.50;3.20;;;16.90;99.90;;;;;;5015690;28;20495;-61
2023/09/06 02:51:08;;;;;;;4.30;3.67;;;16.90;99.90;;;;;;5014257;28;20496;-61
2023/09/06 02:53:35;;;;;;;3.20;2.90;;;16.80;99.90;;;;;;5015314;28;20457;-61
2023/09/06 02:56:01;;;;;;;3.23;2.93;;;16.80;99.90;;;;;;5015142;28;20469;-61
2023/09/06 02:58:28;;;;;;;4.03;2.83;;;16.80;99.90;;;;;;5015284;28;20481;-61
2023/09/06 03:00:57;;;;;;;3.60;3.07;;;16.80;99.90;;;;;;5015380;28;20442;-62
2023/09/06 03:03:27;;;;;;;3.50;3.20;;;16.80;99.90;;;;;;5015067;28;20450;-61
2023/09/06 03:05:57;;;;;;;3.40;3.10;;;16.80;99.90;;;;;;5014626;28;20525;-60
2023/09/06 03:08:27;;;;;;;3.57;3.27;;;16.70;99.90;;;;;;5014926;28;20556;-61
2023/09/06 03:10:54;;;;;;;3.50;3.20;;;16.70;99.90;;;;;;5015499;28;20438;-60
2023/09/06 03:13:21;;;;;;;3.30;2.93;;;16.70;99.90;;;;;;5015058;28;20452;-61
2023/09/06 03:15:51;;;;;;;4.07;3.67;;;16.70;99.90;;;;;;5014830;28;20442;-61
2023/09/06 03:18:18;;;;;;;3.67;3.37;;;16.70;99.90;;;;;;5015102;28;20700;-60
2023/09/06 03:20:45;;;;;;;4.17;3.77;;;16.70;99.90;;;;;;5015603;28;20450;-61
2023/09/06 03:23:18;;;;;;;4.67;3.43;;;16.60;99.90;;;;;;5015077;28;20442;-61
2023/09/06 03:25:47;;;;;;;4.23;3.43;;;16.70;99.90;;;;;;5015018;28;20427;-61
2023/09/06 03:28:14;;;;;;;3.27;2.97;;;16.70;99.90;;;;;;5014693;28;20454;-61
2023/09/06 03:30:41;;;;;;;3.10;2.60;;;16.60;99.90;;;;;;5014548;28;20456;-60
2023/09/06 03:33:08;;;;;;;3.87;3.57;;;16.60;99.90;;;;;;5014509;28;20826;-61
2023/09/06 03:35:35;;;;;;;3.60;3.30;;;16.60;99.90;;;;;;5014888;28;20442;-61
2023/09/06 03:38:02;;;;;;;3.87;2.90;;;16.50;99.90;;;;;;5014376;28;20494;-61
2023/09/06 03:40:35;;;;;;;4.87;3.77;;;16.50;99.90;;;;;;5014579;28;20445;-61
2023/09/06 03:43:05;;;;;;;3.83;3.50;;;16.50;99.90;;;;;;5014553;28;20492;-61
2023/09/06 03:45:32;;;;;;;3.60;3.00;;;16.50;99.90;;;;;;5014343;28;20488;-61
2023/09/06 03:48:00;;;;;;;4.37;3.97;;;16.50;99.90;;;;;;5014191;28;20461;-61
2023/09/06 03:50:27;;;;;;;3.60;3.30;;;16.50;99.90;;;;;;5014321;28;20481;-62
2023/09/06 03:52:54;;;;;;;6.43;3.40;;;16.50;99.90;;;;;;5014101;28;20932;-62
2023/09/06 03:55:24;;;;;;;3.93;3.50;;;16.50;99.90;;;;;;5014615;28;20442;-62
2023/09/06 03:57:52;;;;;;;4.50;3.70;;;16.50;99.90;;;;;;5013940;28;20557;-61
2023/09/06 04:00:26;;;;;;;4.30;3.80;;;16.40;99.90;;;;;;5013575;28;20971;-60
2023/09/06 04:02:54;;;;;;;4.00;3.60;;;16.40;99.90;;;;;;5013721;28;20445;-61
2023/09/06 04:05:23;;;;;;;3.73;3.33;;;16.40;99.90;;;;;;5014212;28;20515;-61
2023/09/06 04:07:50;;;;;;;4.50;3.50;;;16.40;99.90;;;;;;5013999;28;20837;-61
2023/09/06 04:12:10;;;;;;;4.20;3.87;;;16.40;99.90;;;;;;5091621;28;20607;-60
2023/09/06 04:14:38;;;;;;;3.40;3.10;;;16.40;99.90;;;;;;5091242;28;20434;-61
2023/09/06 04:17:07;;;;;;;5.43;4.50;;;16.40;99.90;;;;;;5090991;28;20573;-61
2023/09/06 04:19:34;;;;;;;5.70;3.83;;;16.40;99.90;;;;;;5090816;28;20938;-62
2023/09/06 04:22:01;;;;;;;6.20;3.90;;;16.40;99.90;;;;;;5091106;28;20852;-61
2023/09/06 04:24:28;;;;;;;4.07;3.73;;;16.30;99.90;;;;;;5090992;28;20466;-61
2023/09/06 04:26:55;;;;;;;5.00;4.20;;;16.30;99.90;;;;;;5091080;28;20454;-62
2023/09/06 04:29:24;;;;;;;5.20;3.40;;;16.30;99.90;;;;;;5090771;28;20984;-62
2023/09/06 04:31:50;;;;;;;5.10;4.07;;;16.30;99.90;;;;;;5090711;28;20517;-60
2023/09/06 04:34:17;;;;;;;5.37;4.10;;;16.30;99.90;;;;;;5091001;28;20438;-59
2023/09/06 04:36:44;;;;;;;4.10;3.70;;;16.30;99.90;;;;;;5090994;28;20459;-62
2023/09/06 04:39:11;;;;;;;5.80;3.87;;;16.30;99.90;;;;;;5091012;28;20438;-61
2023/09/06 04:41:37;;;;;;;4.20;3.90;;;16.20;99.90;;;;;;5091277;28;20440;-62
2023/09/06 04:44:05;;;;;;;5.43;4.07;;;16.20;99.90;;;;;;5090718;28;20431;-59
2023/09/06 04:46:33;;;;;;;4.30;3.50;;;16.30;99.90;;;;;;5090302;28;20454;-58
2023/09/06 04:49:00;;;;;;;8.73;3.90;;;16.20;99.90;;;;;;5090470;28;20438;-58
2023/09/06 04:51:27;;;;;;;4.60;4.07;;;16.30;99.90;;;;;;5090230;28;20474;-60
2023/09/06 04:53:54;;;;;;;4.67;3.80;;;16.30;99.90;;;;;;5090272;28;20446;-60
2023/09/06 04:56:22;;;;;;;4.30;3.73;;;16.30;99.90;;;;;;5090039;28;20884;-58
2023/09/06 04:58:49;;;;;;;4.17;3.60;;;16.30;99.90;;;;;;5090228;28;20450;-59
2023/09/06 05:01:16;;;;;;;4.20;3.70;;;16.30;99.90;;;;;;5089996;28;20438;-60
2023/09/06 05:03:45;;;;;;;5.20;3.00;;;16.30;99.90;;;;;;5090885;28;20447;-60
2023/09/06 05:06:11;;;;;;;4.37;3.60;;;16.40;99.90;;;;;;5090058;28;20495;-59
2023/09/06 05:08:38;;;;;;;4.73;4.23;;;16.50;99.90;;;;;;5090128;28;20461;-59
2023/09/06 05:11:04;;;;;;;5.00;4.43;;;16.70;99.90;;;;;;5089583;28;20565;-60
2023/09/06 05:13:31;;;;;;;5.67;3.50;;;16.80;99.90;;;;;;5090415;28;20456;-59
2023/09/06 05:16:01;;;;;;;5.37;4.10;;;16.90;99.90;;;;;;5089928;28;20689;-59
2023/09/06 05:18:28;;;;;;;4.20;3.83;;;17.00;99.90;;;;;;5089603;28;20916;-59
2023/09/06 05:20:59;;;;;;;4.57;3.53;;;17.10;99.90;;;;;;5089927;28;20525;-59
2023/09/06 05:23:25;;;;;;;5.43;3.80;;;17.10;99.90;;;;;;5076832;28;20427;-58
2023/09/06 05:25:52;;;;;;;5.13;3.67;;;17.20;99.90;;;;;;5076113;28;20439;-60
2023/09/06 05:28:19;;;;;;;4.73;3.80;;;17.20;99.90;;;;;;5075845;28;20468;-58
2023/09/06 05:30:46;;;;;;;5.80;3.70;;;17.20;99.90;;;;;;5076414;28;20482;-61
2023/09/06 05:33:14;;;;;;;8.20;3.50;;;17.20;99.90;;;;;;5076280;28;20442;-60
2023/09/06 05:35:42;;;;;;;4.17;3.77;;;17.20;99.90;;;;;;5076037;28;20473;-59
2023/09/06 05:38:10;;;;;;;9.27;5.60;;;17.20;99.90;;;;;;5075364;28;20998;-59
2023/09/06 05:40:38;;;;;;;7.57;4.50;;;17.30;99.90;;;;;;5075712;28;20461;-59
2023/09/06 05:43:05;;;;;;;4.50;4.10;;;17.30;99.90;;;;;;5075986;28;20799;-60
2023/09/06 05:45:32;;;;;;;10.83;4.60;;;17.40;99.90;;;;;;5075283;28;20925;-59
2023/09/06 05:47:58;;;;;;;5.47;4.17;;;17.40;99.90;;;;;;5075503;28;20486;-60
2023/09/06 05:50:26;;;;;;;8.20;5.20;;;17.50;99.90;;;;;;5075298;28;20435;-61
2023/09/06 05:52:53;;;;;;;10.03;3.90;;;17.50;99.90;;;;;;5075432;28;20443;-59
2023/09/06 05:55:21;;;;;;;6.20;3.90;;;17.60;99.90;;;;;;5075681;28;20470;-60
2023/09/06 05:57:48;;;;;;;10.83;4.90;;;17.70;99.90;;;;;;5075498;28;20455;-59
2023/09/06 06:00:17;;;;;;;4.90;4.10;;;17.80;99.90;;;;;;5074954;28;20798;-59
2023/09/06 06:02:44;;;;;;;6.53;4.20;;;17.80;99.90;;;;;;5075083;28;20788;-59
2023/09/06 06:05:12;;;;;;;5.33;3.97;;;17.90;99.90;;;;;;5075269;28;20446;-60
2023/09/06 06:07:39;;;;;;;7.00;4.73;;;18.00;99.90;;;;;;5075053;28;20559;-60
2023/09/06 06:10:09;;;;;;;6.93;6.00;;;18.10;99.90;;;;;;5074600;28;20454;-59
2023/09/06 06:12:38;;;;;;;4.87;4.17;;;18.20;99.90;;;;;;5074686;28;20482;-58
2023/09/06 06:15:08;;;;;;;9.17;3.40;;;18.30;99.90;;;;;;5074658;28;20443;-59
2023/09/06 06:17:34;;;;;;;7.27;4.30;;;18.30;99.90;;;;;;5074648;28;20474;-59
2023/09/06 06:20:03;;;;;;;4.63;3.90;;;18.40;99.90;;;;;;5074240;28;20444;-60
2023/09/06 06:22:30;;;;;;;7.93;4.40;;;18.50;99.90;;;;;;5074925;28;20439;-58
2023/09/06 06:25:01;;;;;;;7.57;4.57;;;18.60;99.90;;;;;;5074484;28;20439;-60
2023/09/06 06:27:28;;;;;;;5.13;4.23;;;18.70;99.90;;;;;;5074515;28;20470;-59
2023/09/06 06:29:56;;;;;;;5.23;4.50;;;18.80;99.90;;;;;;5074101;28;20439;-59
2023/09/06 06:32:22;;;;;;;7.30;4.67;;;18.90;99.90;;;;;;5075186;28;20478;-58
2023/09/06 06:34:51;;;;;;;6.00;4.47;;;18.90;99.90;;;;;;5073640;28;20447;-60
2023/09/06 06:37:17;;;;;;;9.40;5.30;;;19.10;99.90;;;;;;5096202;22;20463;-57
2023/09/06 06:39:44;;;;;;;13.90;5.17;;;19.20;99.90;;;;;;5054651;28;20794;-57
2023/09/06 06:42:11;;;;;;;15.43;5.83;;;19.30;99.90;;;;;;5054067;28;20431;-58
2023/09/06 06:44:38;;;;;;;15.80;4.17;;;19.40;99.90;;;;;;5054519;28;20436;-58
2023/09/06 06:47:06;;;;;;;6.17;4.00;;;19.50;99.90;;;;;;5053720;28;20451;-58
2023/09/06 06:49:33;;;;;;;6.97;3.67;;;19.60;99.90;;;;;;5054059;28;20447;-58
2023/09/06 06:51:59;;;;;;;8.07;3.50;;;19.70;99.90;;;;;;5054134;28;20484;-58
2023/09/06 06:54:26;;;;;;;4.03;3.60;;;19.80;99.90;;;;;;5053988;28;20440;-58
2023/09/06 06:56:53;;;;;;;5.23;3.83;;;19.90;99.90;;;;;;5053742;28;20448;-57
2023/09/06 06:59:19;;;;;;;3.90;3.37;;;20.00;99.90;;;;;;5053477;28;20973;-59
2023/09/06 07:01:47;;;;;;;7.30;3.33;;;20.10;99.90;;;;;;5053764;28;20436;-59
2023/09/06 07:04:15;;;;;;;5.40;3.00;;;20.20;99.90;;;;;;5054184;28;20439;-58
2023/09/06 07:06:42;;;;;;;5.57;3.03;;;20.30;99.90;;;;;;5053574;28;20444;-59
2023/09/06 07:09:10;;;;;;;4.13;3.73;;;20.40;99.90;;;;;;5053722;28;20499;-59
2023/09/06 07:11:37;;;;;;;3.00;2.73;;;20.50;99.90;;;;;;5054202;28;20842;-58
2023/09/06 07:14:04;;;;;;;4.10;2.93;;;20.60;99.90;;;;;;5053511;28;20444;-58
2023/09/06 07:16:33;;;;;;;4.23;2.97;;;20.70;99.90;;;;;;5053667;28;20443;-58
2023/09/06 07:19:00;;;;;;;3.23;2.80;;;20.80;99.90;;;;;;5053793;28;21012;-59
2023/09/06 07:21:28;;;;;;;3.70;3.00;;;20.80;99.90;;;;;;5054797;28;20440;-59
2023/09/06 07:23:55;;;;;;;4.67;3.30;;;20.90;99.90;;;;;;5054011;28;20500;-58
2023/09/06 07:26:22;;;;;;;4.50;2.93;;;21.00;99.90;;;;;;5053692;28;20822;-58
2023/09/06 07:28:49;;;;;;;3.90;3.50;;;21.10;99.90;;;;;;5053675;28;20460;-59
2023/09/06 07:31:17;;;;;;;6.33;2.83;;;21.20;99.90;;;;;;5053714;28;20476;-59
2023/09/06 07:33:44;;;;;;;4.43;3.17;;;21.40;99.90;;;;;;5053508;28;20452;-59
2023/09/06 07:36:13;;;;;;;3.60;3.07;;;21.50;99.90;;;;;;5054020;28;20440;-58
2023/09/06 07:38:41;;;;;;;5.03;3.77;;;21.60;99.90;;;;;;5053228;28;20472;-59
2023/09/06 07:41:08;;;;;;;5.50;3.10;;;21.70;99.90;;;;;;5053501;28;20494;-58
2023/09/06 07:43:37;;;;;;;3.90;3.00;;;21.70;99.90;;;;;;5053160;28;20459;-59
2023/09/06 07:46:07;;;;;;;8.30;3.07;;;21.80;99.90;;;;;;5053315;28;20440;-59
2023/09/06 07:48:35;;;;;;;3.33;2.77;;;21.90;99.90;;;;;;5053745;28;20456;-58
2023/09/06 07:51:04;;;;;;;3.70;2.77;;;22.00;99.90;;;;;;5053422;28;20910;-59
2023/09/06 07:53:31;;;;;;;5.93;2.40;;;22.10;99.90;;;;;;5053885;28;20452;-58
2023/09/06 07:55:59;;;;;;;3.50;2.70;;;22.20;99.90;;;;;;5053873;28;20444;-56
2023/09/06 07:58:26;;;;;;;3.80;3.30;;;22.30;99.50;;;;;;5053719;28;20551;-59
2023/09/06 08:00:53;;;;;;;5.23;2.73;;;22.40;99.00;;;;;;5052695;28;20989;-59
2023/09/06 08:03:20;;;;;;;3.40;2.73;;;22.50;98.20;;;;;;5052639;28;20447;-58
2023/09/06 08:05:47;;;;;;;4.43;2.50;;;22.60;97.60;;;;;;5053552;28;20447;-60
2023/09/06 08:08:13;;;;;;;4.30;2.53;;;22.70;97.10;;;;;;5053387;28;20513;-56
2023/09/06 08:10:41;;;;;;;2.73;2.40;;;22.80;96.70;;;;;;5053273;28;20432;-56
2023/09/06 08:13:10;;;;;;;3.53;2.33;;;22.90;96.10;;;;;;5053340;28;21011;-58
2023/09/06 08:15:37;;;;;;;4.47;2.57;;;23.10;95.50;;;;;;5053666;28;20448;-58
2023/09/06 08:18:05;;;;;;;7.53;2.60;;;23.20;95.00;;;;;;5053564;28;20472;-59
2023/09/06 08:20:32;;;;;;;3.27;2.87;;;23.30;94.60;;;;;;5053812;28;20440;-58
2023/09/06 08:22:59;;;;;;;3.87;3.50;;;23.40;93.70;;;;;;5053324;28;20451;-59
2023/09/06 08:25:26;;;;;;;2.60;2.40;;;23.50;93.20;;;;;;5053153;28;20463;-58
2023/09/06 08:27:53;;;;;;;4.60;2.47;;;23.60;92.70;;;;;;5053476;28;20456;-59
2023/09/06 08:30:22;;;;;;;3.90;3.10;;;23.70;92.10;;;;;;5053386;28;20466;-58
2023/09/06 08:32:50;;;;;;;3.40;2.83;;;23.80;91.50;;;;;;5053079;28;20489;-59
2023/09/06 08:35:18;;;;;;;4.70;2.43;;;23.90;90.90;;;;;;5053293;28;20527;-57
2023/09/06 08:37:46;;;;;;;3.17;2.60;;;24.00;90.50;;;;;;5052894;28;20468;-58
2023/09/06 08:40:13;;;;;;;4.57;2.60;;;24.10;90.00;;;;;;5053097;28;20431;-58
2023/09/06 08:42:40;;;;;;;4.00;2.53;;;24.20;88.60;;;;;;5053384;28;20436;-58
2023/09/06 08:45:08;;;;;;;3.43;2.30;;;24.40;87.50;;;;;;5053424;28;20970;-56
2023/09/06 08:47:39;;;;;;;5.40;2.30;;;24.50;86.30;;;;;;5053076;28;20468;-58
2023/09/06 08:50:09;;;;;;;3.93;2.43;;;24.60;85.20;;;;;;5052861;28;20486;-58
2023/09/06 08:52:37;;;;;;;3.83;2.40;;;24.70;84.20;;;;;;5053796;28;20483;-59
2023/09/06 08:55:06;;;;;;;4.33;2.63;;;24.80;83.00;;;;;;5053135;28;20440;-57
2023/09/06 08:57:33;;;;;;;3.63;3.17;;;24.90;81.90;;;;;;5053615;28;20977;-58
2023/09/06 09:00:01;;;;;;;7.33;2.90;;;25.00;80.50;;;;;;5056492;28;20451;-58
2023/09/06 09:02:28;;;;;;;2.73;2.43;;;25.10;79.60;;;;;;5056340;28;20440;-59
2023/09/06 09:04:56;;;;;;;6.00;2.73;;;25.20;78.90;;;;;;5056303;28;20759;-58
2023/09/06 09:07:25;;;;;;;2.60;2.40;;;25.30;78.10;;;;;;5056583;28;20479;-59
2023/09/06 09:09:59;;;;;;;3.80;2.40;;;25.40;77.30;;;;;;5056326;28;20895;-57
2023/09/06 09:12:27;;;;;;;2.57;2.17;;;25.50;76.50;;;;;;5056045;28;20561;-57
2023/09/06 09:14:56;;;;;;;5.60;2.17;;;25.50;76.00;;;;;;5056143;28;20956;-58
2023/09/06 09:17:23;;;;;;;2.83;2.33;;;25.60;75.10;;;;;;5056952;28;20862;-57
2023/09/06 09:19:51;;;;;;;4.70;2.60;;;25.70;74.20;;;;;;5056916;28;20448;-58
2023/09/06 09:22:24;;;;;;;2.67;2.47;;;25.70;73.40;;;;;;5056832;28;20447;-58
2023/09/06 09:24:51;;;;;;;3.93;2.53;;;25.80;72.70;;;;;;5057176;28;20478;-59
2023/09/06 09:27:19;;;;;;;4.87;2.40;;;25.90;71.70;;;;;;5057076;28;20459;-58
2023/09/06 09:29:47;;;;;;;3.97;2.10;;;25.90;70.50;;;;;;5057306;28;20921;-59
2023/09/06 09:32:15;;;;;;;3.23;2.37;;;26.10;69.60;;;;;;5057778;28;20533;-57
2023/09/06 09:34:42;;;;;;;2.50;2.17;;;26.10;68.70;;;;;;5056832;28;20528;-58
2023/09/06 09:37:09;;;;;;;4.60;2.50;;;26.20;67.90;;;;;;5055596;28;20459;-59
2023/09/06 09:39:38;;;;;;;3.60;2.33;;;26.40;67.30;;;;;;5056290;28;20425;-59
2023/09/06 09:42:05;;;;;;;4.40;2.53;;;26.40;66.70;;;;;;5055960;28;20444;-59
2023/09/06 09:44:33;;;;;;;2.77;2.33;;;26.50;66.20;;;;;;5055709;28;20817;-59
2023/09/06 09:47:09;;;;;;;3.20;2.70;;;26.50;65.50;;;;;;5055728;28;20444;-58
2023/09/06 09:49:37;;;;;;;5.20;2.40;;;26.60;64.90;;;;;;5055651;28;20477;-59
2023/09/06 09:52:06;;;;;;;4.00;2.60;;;26.70;64.40;;;;;;5054961;28;20475;-57
2023/09/06 09:54:35;;;;;;;2.90;2.37;;;26.80;63.40;;;;;;5055497;28;20443;-58
2023/09/06 09:57:06;;;;;;;2.27;2.07;;;26.80;62.40;;;;;;5055241;28;20442;-59
2023/09/06 09:59:33;;;;;;;3.73;2.37;;;26.80;61.20;;;;;;5055354;28;20443;-58
2023/09/06 10:02:02;;;;;;;4.63;2.80;;;26.90;60.70;;;;;;5055156;28;20961;-60
2023/09/06 10:04:30;;;;;;;6.00;2.30;;;27.00;60.20;;;;;;5055460;28;20454;-58
2023/09/06 10:06:58;;;;;;;3.40;2.33;;;27.10;59.60;;;;;;5055126;28;20981;-59
2023/09/06 10:09:26;;;;;;;4.70;2.70;;;27.20;59.30;;;;;;5054563;28;20472;-59
2023/09/06 10:11:56;;;;;;;3.07;2.07;;;27.20;58.90;;;;;;5054897;28;20491;-59
2023/09/06 10:14:26;;;;;;;5.53;2.80;;;27.30;58.50;;;;;;5054526;28;20957;-59
2023/09/06 10:16:53;;;;;;;2.70;2.23;;;27.40;58.00;;;;;;5055304;28;20463;-59
2023/09/06 10:19:21;;;;;;;4.30;2.83;;;27.40;57.60;;;;;;5054769;28;20982;-59
2023/09/06 10:21:48;;;;;;;5.67;2.20;;;27.50;57.30;;;;;;5055833;28;20816;-59
2023/09/06 10:24:19;;;;;;;4.83;2.47;;;27.50;57.00;;;;;;5055469;28;20440;-57
2023/09/06 10:26:48;;;;;;;4.37;2.17;;;27.60;56.80;;;;;;5054775;28;20429;-59
2023/09/06 10:29:20;;;;;;;2.37;2.00;;;27.70;56.60;;;;;;5054764;28;20971;-60
2023/09/06 10:31:50;;;;;;;2.77;2.50;;;27.70;56.10;;;;;;5054912;28;20547;-59
2023/09/06 10:34:17;;;;;;;3.13;2.40;;;27.80;56.00;;;;;;5054381;28;20498;-56
2023/09/06 10:36:53;;;;;;;3.00;2.23;;;27.90;55.70;;;;;;5054495;28;20938;-59
2023/09/06 10:39:22;;;;;;;2.63;2.17;;;28.00;55.50;;;;;;5054325;28;20799;-59
2023/09/06 10:42:17;;;;;;;3.80;2.10;;;28.10;55.50;;;;;;5054696;28;20521;-58
2023/09/06 10:45:12;;;;;;;4.63;2.50;;;28.20;55.40;;;;;;5055737;28;20444;-59
2023/09/06 10:47:41;;;;;;;4.23;2.50;;;28.20;55.30;;;;;;5054691;28;20466;-58
2023/09/06 10:50:09;;;;;;;7.40;2.70;;;28.40;55.40;;;;;;5054849;28;20450;-59
2023/09/06 10:52:41;;;;;;;4.90;2.37;;;28.40;55.20;;;;;;5056100;28;20483;-60
2023/09/06 10:55:13;;;;;;;3.10;2.67;;;28.50;55.10;;;;;;5055762;28;20444;-59
2023/09/06 10:58:03;;;;;;;4.10;2.27;;;28.60;54.90;;;;;;5056091;28;20475;-59
2023/09/06 11:00:31;;;;;;;4.00;2.63;;;28.70;54.50;;;;;;5055303;28;20538;-60
2023/09/06 11:03:21;;;;;;;3.27;2.70;;;28.70;54.30;;;;;;5055046;28;20806;-59
2023/09/06 11:05:56;;;;;;;3.73;2.13;;;28.80;54.00;;;;;;5054942;28;20845;-59
2023/09/06 11:08:26;;;;;;;2.70;2.27;;;28.80;53.90;;;;;;5054431;28;20463;-59
2023/09/06 11:10:53;;;;;;;3.30;2.30;;;28.90;53.50;;;;;;5056147;28;20451;-58
2023/09/06 11:13:22;;;;;;;3.20;2.73;;;29.00;53.20;;;;;;5057646;28;20533;-59
2023/09/06 11:15:51;;;;;;;4.30;2.50;;;29.10;53.20;;;;;;5057870;28;20455;-58
2023/09/06 11:18:19;;;;;;;2.20;1.53;;;29.10;52.80;;;;;;5057787;28;20490;-59
2023/09/06 11:20:50;;;;;;;2.93;2.27;;;29.00;52.50;;;;;;5056431;28;20448;-58
2023/09/06 11:23:17;;;;;;;3.50;2.30;;;28.90;52.40;;;;;;5057599;28;20420;-58
2023/09/06 11:25:45;;;;;;;3.77;1.90;;;28.90;52.70;;;;;;5056283;28;20440;-59
2023/09/06 11:28:17;;;;;;;3.57;2.13;;;28.90;52.70;;;;;;5055271;28;20468;-59
2023/09/06 11:30:46;;;;;;;3.17;1.90;;;28.90;52.70;;;;;;5055382;28;20440;-60
2023/09/06 11:33:17;;;;;;;4.97;2.20;;;29.00;52.50;;;;;;5055012;28;20553;-59
2023/09/06 11:35:52;;;;;;;3.67;2.43;;;29.00;52.20;;;;;;5054809;28;20478;-58
2023/09/06 11:38:24;;;;;;;4.20;2.70;;;29.00;51.80;;;;;;5055402;28;20476;-58
2023/09/06 11:40:52;;;;;;;3.70;2.80;;;28.90;51.40;;;;;;5055541;28;20779;-58
2023/09/06 11:43:23;;;;;;;4.13;3.73;;;29.00;51.30;;;;;;5055154;28;20452;-58
2023/09/06 11:45:53;;;;;;;3.33;2.10;;;29.10;51.20;;;;;;5056829;28;20429;-60
2023/09/06 11:48:25;;;;;;;4.83;2.67;;;29.20;51.00;;;;;;5055819;28;20460;-59
2023/09/06 11:51:01;;;;;;;2.40;1.80;;;29.30;50.90;;;;;;5055246;28;20437;-60
2023/09/06 11:53:30;;;;;;;2.60;2.13;;;29.40;50.50;;;;;;5055110;28;20506;-59
2023/09/06 11:55:59;;;;;;;6.33;2.17;;;29.50;50.10;;;;;;5054811;28;20452;-59
2023/09/06 11:58:27;;;;;;;3.40;2.40;;;29.50;49.80;;;;;;5054693;28;21055;-59
2023/09/06 12:00:56;;;;;;;2.77;2.47;;;29.50;49.80;;;;;;5054226;28;20474;-59
2023/09/06 12:03:29;;;;;;;3.80;2.63;;;29.50;49.90;;;;;;5054070;28;20439;-59
2023/09/06 12:06:00;;;;;;;3.93;2.53;;;29.50;49.80;;;;;;5055359;28;20428;-60
2023/09/06 12:08:29;;;;;;;2.83;2.40;;;29.60;49.80;;;;;;5055287;28;20464;-59
2023/09/06 12:11:05;;;;;;;4.87;2.37;;;29.70;49.10;;;;;;5054867;28;20443;-58
2023/09/06 12:13:34;;;;;;;6.30;2.30;;;29.70;48.40;;;;;;5054426;28;20468;-60
2023/09/06 12:16:04;;;;;;;3.07;2.67;;;29.70;48.20;;;;;;5054662;28;20451;-60
2023/09/06 12:18:32;;;;;;;5.27;2.77;;;29.70;47.90;;;;;;5054284;28;20505;-60
2023/09/06 12:21:00;;;;;;;3.80;2.43;;;29.70;47.70;;;;;;5054057;28;20949;-59
2023/09/06 12:23:29;;;;;;;3.93;2.43;;;29.70;47.30;;;;;;5053599;28;20527;-60
2023/09/06 12:25:56;;;;;;;3.70;2.10;;;29.70;46.80;;;;;;5053365;28;20444;-60
2023/09/06 12:28:23;;;;;;;6.17;2.20;;;29.70;46.50;;;;;;5053361;28;20468;-60
2023/09/06 12:30:53;;;;;;;3.80;2.50;;;29.80;46.20;;;;;;5053998;28;20443;-58
2023/09/06 12:33:21;;;;;;;6.23;2.07;;;29.80;45.50;;;;;;5056744;28;20466;-60
2023/09/06 12:35:48;;;;;;;2.17;1.73;;;29.90;45.40;;;;;;5057612;28;20860;-60
2023/09/06 12:38:16;;;;;;;4.30;1.97;;;29.90;45.30;;;;;;5095790;22;20510;-61
2023/09/06 12:40:43;;;;;;;3.00;2.10;;;30.00;45.90;;;;;;5077227;28;20447;-62
2023/09/06 12:43:09;;;;;;;4.90;2.00;;;30.10;45.30;;;;;;5077410;28;20439;-62
2023/09/06 12:45:36;;;;;;;3.20;2.33;;;30.10;45.30;;;;;;5077387;28;20462;-61
2023/09/06 12:48:05;;;;;;;3.50;2.37;;;30.20;45.30;;;;;;5077359;28;20462;-61
2023/09/06 12:50:32;;;;;;;3.10;2.00;;;30.30;45.20;;;;;;5076980;28;20525;-61
2023/09/06 12:52:59;;;;;;;3.97;1.80;;;30.20;44.90;;;;;;5077056;28;21042;-63